sensor_id;sensor_type;location;lat;lon;timestamp;P1;durP1;ratioP1;P2;durP2;ratioP2
31760;SDS011;18335;51.486;7.562;2022-10-16T07:01:53;5.13;;;1.00;;
31760;SDS011;18335;51.486;7.562;2022-10-16T07:04:19;1.83;;;0.82;;
31760;SDS011;18335;51.486;7.562;2022-10-16T07:06:46;2.85;;;1.27;;
31760;SDS011;18335;51.486;7.562;2022-10-16T07:09:13;2.33;;;0.90;;
31760;SDS011;18335;51.486;7.562;2022-10-16T07:11:40;4.47;;;1.50;;
31760;SDS011;18335;51.486;7.562;2022-10-16T07:14:09;4.85;;;1.20;;
31760;SDS011;18335;51.486;7.562;2022-10-16T07:16:41;7.20;;;1.40;;
31760;SDS011;18335;51.486;7.562;2022-10-16T07:19:09;3.50;;;1.10;;
31760;SDS011;18335;51.486;7.562;2022-10-16T07:21:37;3.80;;;1.15;;
31760;SDS011;18335;51.486;7.562;2022-10-16T07:24:05;6.38;;;1.10;;
31760;SDS011;18335;51.486;7.562;2022-10-16T07:26:33;4.22;;;1.10;;
31760;SDS011;18335;51.486;7.562;2022-10-16T07:29:02;3.25;;;1.13;;
31760;SDS011;18335;51.486;7.562;2022-10-16T07:31:29;3.22;;;1.08;;
31760;SDS011;18335;51.486;7.562;2022-10-16T07:33:57;3.20;;;1.27;;
31760;SDS011;18335;51.486;7.562;2022-10-16T07:36:26;5.80;;;1.17;;
31760;SDS011;18335;51.486;7.562;2022-10-16T07:38:53;3.60;;;1.10;;
31760;SDS011;18335;51.486;7.562;2022-10-16T07:41:19;4.22;;;1.35;;
31760;SDS011;18335;51.486;7.562;2022-10-16T07:43:46;5.35;;;2.00;;
31760;SDS011;18335;51.486;7.562;2022-10-16T07:46:14;3.55;;;1.40;;
31760;SDS011;18335;51.486;7.562;2022-10-16T07:48:42;4.75;;;1.15;;
31760;SDS011;18335;51.486;7.562;2022-10-16T07:51:12;4.43;;;1.17;;
31760;SDS011;18335;51.486;7.562;2022-10-16T07:53:42;3.30;;;1.30;;
31760;SDS011;18335;51.486;7.562;2022-10-16T07:56:09;3.92;;;1.35;;
31760;SDS011;18335;51.486;7.562;2022-10-16T07:58:36;5.88;;;1.30;;
31760;SDS011;18335;51.486;7.562;2022-10-16T08:01:04;5.88;;;1.45;;
31760;SDS011;18335;51.486;7.562;2022-10-16T08:03:32;5.28;;;1.58;;
31760;SDS011;18335;51.486;7.562;2022-10-16T08:05:59;5.57;;;1.80;;
31760;SDS011;18335;51.486;7.562;2022-10-16T08:08:26;2.70;;;1.00;;
31760;SDS011;18335;51.486;7.562;2022-10-16T08:10:55;3.42;;;1.13;;
31760;SDS011;18335;51.486;7.562;2022-10-16T08:13:22;7.15;;;1.42;;
31760;SDS011;18335;51.486;7.562;2022-10-16T08:15:49;3.40;;;1.50;;
31760;SDS011;18335;51.486;7.562;2022-10-16T08:18:16;2.80;;;1.45;;
31760;SDS011;18335;51.486;7.562;2022-10-16T08:20:42;3.58;;;1.45;;
31760;SDS011;18335;51.486;7.562;2022-10-16T08:23:09;3.47;;;1.23;;
31760;SDS011;18335;51.486;7.562;2022-10-16T08:25:38;3.97;;;1.00;;
31760;SDS011;18335;51.486;7.562;2022-10-16T08:28:07;3.17;;;1.38;;
31760;SDS011;18335;51.486;7.562;2022-10-16T08:30:36;5.05;;;2.05;;
31760;SDS011;18335;51.486;7.562;2022-10-16T08:33:03;6.22;;;2.05;;
31760;SDS011;18335;51.486;7.562;2022-10-16T08:35:29;4.97;;;1.20;;
31760;SDS011;18335;51.486;7.562;2022-10-16T08:37:56;5.10;;;1.30;;
31760;SDS011;18335;51.486;7.562;2022-10-16T08:40:24;3.33;;;1.23;;
31760;SDS011;18335;51.486;7.562;2022-10-16T08:45:52;3.90;;;1.45;;
31760;SDS011;18335;51.486;7.562;2022-10-16T08:51:02;5.13;;;1.00;;
31760;SDS011;18335;51.486;7.562;2022-10-16T08:53:31;4.00;;;1.42;;
31760;SDS011;18335;51.486;7.562;2022-10-16T08:56:05;2.70;;;1.15;;
31760;SDS011;18335;51.486;7.562;2022-10-16T08:58:33;6.25;;;1.10;;
31760;SDS011;18335;51.486;7.562;2022-10-16T09:01:00;5.00;;;1.30;;
31760;SDS011;18335;51.486;7.562;2022-10-16T09:03:32;3.80;;;1.20;;
31760;SDS011;18335;51.486;7.562;2022-10-16T09:06:21;5.57;;;1.80;;
31760;SDS011;18335;51.486;7.562;2022-10-16T09:09:01;2.80;;;1.02;;
31760;SDS011;18335;51.486;7.562;2022-10-16T09:11:41;5.90;;;1.00;;
31760;SDS011;18335;51.486;7.562;2022-10-16T09:14:22;8.23;;;0.90;;
31760;SDS011;18335;51.486;7.562;2022-10-16T09:19:34;3.40;;;0.80;;
31760;SDS011;18335;51.486;7.562;2022-10-16T09:22:09;5.07;;;1.20;;
31760;SDS011;18335;51.486;7.562;2022-10-16T09:24:39;4.47;;;1.02;;
31760;SDS011;18335;51.486;7.562;2022-10-16T09:27:07;5.13;;;1.08;;
31760;SDS011;18335;51.486;7.562;2022-10-16T09:29:37;5.90;;;0.80;;
31760;SDS011;18335;51.486;7.562;2022-10-16T09:32:09;3.78;;;0.88;;
31760;SDS011;18335;51.486;7.562;2022-10-16T09:34:39;3.42;;;0.60;;
31760;SDS011;18335;51.486;7.562;2022-10-16T09:37:11;2.20;;;0.80;;
31760;SDS011;18335;51.486;7.562;2022-10-16T09:39:44;3.30;;;0.82;;
31760;SDS011;18335;51.486;7.562;2022-10-16T09:42:11;3.00;;;0.80;;
31760;SDS011;18335;51.486;7.562;2022-10-16T09:44:46;7.20;;;0.70;;
31760;SDS011;18335;51.486;7.562;2022-10-16T09:47:14;1.98;;;0.70;;
31760;SDS011;18335;51.486;7.562;2022-10-16T09:49:50;6.53;;;0.90;;
31760;SDS011;18335;51.486;7.562;2022-10-16T09:52:18;5.53;;;0.95;;
31760;SDS011;18335;51.486;7.562;2022-10-16T09:54:49;3.22;;;0.80;;
31760;SDS011;18335;51.486;7.562;2022-10-16T09:57:17;4.97;;;1.30;;
31760;SDS011;18335;51.486;7.562;2022-10-16T09:59:49;2.15;;;0.70;;
31760;SDS011;18335;51.486;7.562;2022-10-16T10:02:17;5.63;;;0.85;;
31760;SDS011;18335;51.486;7.562;2022-10-16T10:04:48;4.20;;;0.70;;
31760;SDS011;18335;51.486;7.562;2022-10-16T10:07:20;3.38;;;0.75;;
31760;SDS011;18335;51.486;7.562;2022-10-16T10:09:52;5.15;;;0.98;;
31760;SDS011;18335;51.486;7.562;2022-10-16T10:12:20;4.78;;;0.90;;
31760;SDS011;18335;51.486;7.562;2022-10-16T10:14:50;4.55;;;0.80;;
31760;SDS011;18335;51.486;7.562;2022-10-16T10:17:19;2.95;;;1.00;;
31760;SDS011;18335;51.486;7.562;2022-10-16T10:19:48;3.03;;;0.60;;
31760;SDS011;18335;51.486;7.562;2022-10-16T10:22:17;2.60;;;0.98;;
31760;SDS011;18335;51.486;7.562;2022-10-16T10:24:54;5.95;;;1.20;;
31760;SDS011;18335;51.486;7.562;2022-10-16T10:27:23;2.40;;;0.75;;
31760;SDS011;18335;51.486;7.562;2022-10-16T10:30:01;4.03;;;0.82;;
31760;SDS011;18335;51.486;7.562;2022-10-16T10:32:35;3.80;;;0.75;;
31760;SDS011;18335;51.486;7.562;2022-10-16T10:35:14;4.30;;;1.07;;
31760;SDS011;18335;51.486;7.562;2022-10-16T10:37:49;4.00;;;1.45;;
31760;SDS011;18335;51.486;7.562;2022-10-16T10:40:30;7.53;;;1.60;;
31760;SDS011;18335;51.486;7.562;2022-10-16T10:43:09;2.75;;;0.85;;
31760;SDS011;18335;51.486;7.562;2022-10-16T10:45:51;5.00;;;1.20;;
31760;SDS011;18335;51.486;7.562;2022-10-16T10:48:25;1.75;;;0.75;;
31760;SDS011;18335;51.486;7.562;2022-10-16T10:51:15;3.38;;;0.88;;
31760;SDS011;18335;51.486;7.562;2022-10-16T10:53:49;4.53;;;1.05;;
31760;SDS011;18335;51.486;7.562;2022-10-16T10:56:29;4.20;;;0.82;;
31760;SDS011;18335;51.486;7.562;2022-10-16T10:59:09;2.55;;;0.82;;
31760;SDS011;18335;51.486;7.562;2022-10-16T11:01:52;3.63;;;0.95;;
31760;SDS011;18335;51.486;7.562;2022-10-16T11:04:29;3.42;;;0.90;;
31760;SDS011;18335;51.486;7.562;2022-10-16T11:07:17;4.32;;;0.60;;
31760;SDS011;18335;51.486;7.562;2022-10-16T11:09:51;2.33;;;0.82;;
31760;SDS011;18335;51.486;7.562;2022-10-16T11:12:23;4.13;;;0.75;;
31760;SDS011;18335;51.486;7.562;2022-10-16T11:14:55;3.60;;;0.82;;
31760;SDS011;18335;51.486;7.562;2022-10-16T11:17:27;1.20;;;0.80;;
31760;SDS011;18335;51.486;7.562;2022-10-16T11:19:58;3.13;;;0.60;;
31760;SDS011;18335;51.486;7.562;2022-10-16T11:22:32;2.67;;;1.00;;
31760;SDS011;18335;51.486;7.562;2022-10-16T11:25:04;4.22;;;0.70;;
31760;SDS011;18335;51.486;7.562;2022-10-16T11:27:40;3.60;;;1.00;;
31760;SDS011;18335;51.486;7.562;2022-10-16T11:30:14;3.13;;;0.82;;
31760;SDS011;18335;51.486;7.562;2022-10-16T11:32:50;5.57;;;1.42;;
31760;SDS011;18335;51.486;7.562;2022-10-16T11:35:32;3.80;;;0.73;;
31760;SDS011;18335;51.486;7.562;2022-10-16T11:38:08;3.13;;;0.80;;
31760;SDS011;18335;51.486;7.562;2022-10-16T11:40:41;4.22;;;0.88;;
31760;SDS011;18335;51.486;7.562;2022-10-16T11:43:14;8.02;;;1.27;;
31760;SDS011;18335;51.486;7.562;2022-10-16T11:45:49;4.53;;;0.93;;
31760;SDS011;18335;51.486;7.562;2022-10-16T11:48:22;4.50;;;1.30;;
31760;SDS011;18335;51.486;7.562;2022-10-16T11:50:54;2.50;;;0.80;;
31760;SDS011;18335;51.486;7.562;2022-10-16T11:53:29;2.85;;;0.82;;
31760;SDS011;18335;51.486;7.562;2022-10-16T11:56:07;4.55;;;0.95;;
31760;SDS011;18335;51.486;7.562;2022-10-16T11:58:36;3.72;;;1.13;;
31760;SDS011;18335;51.486;7.562;2022-10-16T12:01:13;7.15;;;0.70;;
31760;SDS011;18335;51.486;7.562;2022-10-16T12:03:48;4.15;;;0.85;;
31760;SDS011;18335;51.486;7.562;2022-10-16T12:06:22;4.28;;;0.75;;
31760;SDS011;18335;51.486;7.562;2022-10-16T12:08:57;5.15;;;0.80;;
31760;SDS011;18335;51.486;7.562;2022-10-16T12:11:34;2.38;;;0.75;;
31760;SDS011;18335;51.486;7.562;2022-10-16T12:14:07;2.33;;;0.80;;
31760;SDS011;18335;51.486;7.562;2022-10-16T12:16:51;3.65;;;0.80;;
31760;SDS011;18335;51.486;7.562;2022-10-16T12:19:22;5.93;;;1.00;;
31760;SDS011;18335;51.486;7.562;2022-10-16T12:21:50;5.72;;;1.17;;
31760;SDS011;18335;51.486;7.562;2022-10-16T12:24:27;3.05;;;0.75;;
31760;SDS011;18335;51.486;7.562;2022-10-16T12:26:57;3.15;;;0.77;;
31760;SDS011;18335;51.486;7.562;2022-10-16T12:29:28;2.30;;;0.68;;
31760;SDS011;18335;51.486;7.562;2022-10-16T12:31:59;3.55;;;0.70;;
31760;SDS011;18335;51.486;7.562;2022-10-16T12:34:28;3.88;;;0.60;;
31760;SDS011;18335;51.486;7.562;2022-10-16T12:37:07;3.60;;;0.50;;
31760;SDS011;18335;51.486;7.562;2022-10-16T12:39:37;3.13;;;0.65;;
31760;SDS011;18335;51.486;7.562;2022-10-16T12:42:04;2.85;;;0.65;;
31760;SDS011;18335;51.486;7.562;2022-10-16T12:44:44;2.03;;;0.50;;
31760;SDS011;18335;51.486;7.562;2022-10-16T12:47:18;4.40;;;1.58;;
31760;SDS011;18335;51.486;7.562;2022-10-16T12:49:50;2.65;;;0.73;;
31760;SDS011;18335;51.486;7.562;2022-10-16T12:52:27;1.65;;;0.75;;
31760;SDS011;18335;51.486;7.562;2022-10-16T12:54:56;2.15;;;0.38;;
31760;SDS011;18335;51.486;7.562;2022-10-16T12:57:35;2.42;;;0.43;;
31760;SDS011;18335;51.486;7.562;2022-10-16T13:00:13;4.95;;;0.60;;
31760;SDS011;18335;51.486;7.562;2022-10-16T13:02:58;2.83;;;0.65;;
31760;SDS011;18335;51.486;7.562;2022-10-16T13:05:51;3.97;;;0.90;;
31760;SDS011;18335;51.486;7.562;2022-10-16T13:08:38;3.58;;;0.73;;
31760;SDS011;18335;51.486;7.562;2022-10-16T13:11:21;2.05;;;0.40;;
31760;SDS011;18335;51.486;7.562;2022-10-16T13:13:58;2.45;;;0.80;;
31760;SDS011;18335;51.486;7.562;2022-10-16T13:16:39;3.55;;;0.73;;
31760;SDS011;18335;51.486;7.562;2022-10-16T13:19:18;4.35;;;0.85;;
31760;SDS011;18335;51.486;7.562;2022-10-16T13:21:58;2.80;;;0.60;;
31760;SDS011;18335;51.486;7.562;2022-10-16T13:27:30;1.88;;;0.45;;
31760;SDS011;18335;51.486;7.562;2022-10-16T13:30:09;4.25;;;0.80;;
31760;SDS011;18335;51.486;7.562;2022-10-16T13:32:40;1.75;;;0.70;;
31760;SDS011;18335;51.486;7.562;2022-10-16T13:35:20;2.17;;;0.70;;
31760;SDS011;18335;51.486;7.562;2022-10-16T13:37:50;4.97;;;0.80;;
31760;SDS011;18335;51.486;7.562;2022-10-16T13:40:18;2.95;;;0.77;;
31760;SDS011;18335;51.486;7.562;2022-10-16T13:42:46;3.70;;;0.75;;
31760;SDS011;18335;51.486;7.562;2022-10-16T13:45:17;2.80;;;0.73;;
31760;SDS011;18335;51.486;7.562;2022-10-16T13:47:45;1.17;;;0.50;;
31760;SDS011;18335;51.486;7.562;2022-10-16T13:50:13;3.95;;;1.25;;
31760;SDS011;18335;51.486;7.562;2022-10-16T13:52:42;4.15;;;1.00;;
31760;SDS011;18335;51.486;7.562;2022-10-16T13:55:14;2.53;;;0.38;;
31760;SDS011;18335;51.486;7.562;2022-10-16T13:57:42;6.00;;;0.80;;
31760;SDS011;18335;51.486;7.562;2022-10-16T14:00:19;4.22;;;0.77;;
31760;SDS011;18335;51.486;7.562;2022-10-16T14:02:50;5.50;;;0.90;;
31760;SDS011;18335;51.486;7.562;2022-10-16T14:05:21;4.18;;;0.80;;
31760;SDS011;18335;51.486;7.562;2022-10-16T14:07:48;5.53;;;0.77;;
31760;SDS011;18335;51.486;7.562;2022-10-16T14:10:23;2.17;;;0.45;;
31760;SDS011;18335;51.486;7.562;2022-10-16T14:12:54;3.45;;;0.73;;
31760;SDS011;18335;51.486;7.562;2022-10-16T14:15:22;4.38;;;0.90;;
31760;SDS011;18335;51.486;7.562;2022-10-16T14:17:49;2.72;;;0.65;;
31760;SDS011;18335;51.486;7.562;2022-10-16T14:20:18;2.67;;;0.68;;
31760;SDS011;18335;51.486;7.562;2022-10-16T14:22:46;2.88;;;0.60;;
31760;SDS011;18335;51.486;7.562;2022-10-16T14:25:27;1.88;;;0.70;;
31760;SDS011;18335;51.486;7.562;2022-10-16T14:27:57;3.08;;;0.65;;
31760;SDS011;18335;51.486;7.562;2022-10-16T14:30:29;3.85;;;0.90;;
31760;SDS011;18335;51.486;7.562;2022-10-16T14:32:58;6.47;;;0.77;;
31760;SDS011;18335;51.486;7.562;2022-10-16T14:35:27;2.05;;;0.52;;
31760;SDS011;18335;51.486;7.562;2022-10-16T14:37:56;2.92;;;0.70;;
31760;SDS011;18335;51.486;7.562;2022-10-16T14:40:25;5.47;;;1.00;;
31760;SDS011;18335;51.486;7.562;2022-10-16T14:42:54;5.53;;;0.90;;
31760;SDS011;18335;51.486;7.562;2022-10-16T14:45:23;3.53;;;0.85;;
31760;SDS011;18335;51.486;7.562;2022-10-16T14:47:53;5.72;;;0.98;;
31760;SDS011;18335;51.486;7.562;2022-10-16T14:50:22;3.15;;;0.85;;
31760;SDS011;18335;51.486;7.562;2022-10-16T14:52:49;3.33;;;0.80;;
31760;SDS011;18335;51.486;7.562;2022-10-16T14:55:15;2.97;;;1.00;;
31760;SDS011;18335;51.486;7.562;2022-10-16T14:57:44;4.68;;;1.15;;
31760;SDS011;18335;51.486;7.562;2022-10-16T15:00:15;4.53;;;1.13;;
31760;SDS011;18335;51.486;7.562;2022-10-16T15:02:44;3.78;;;0.80;;
31760;SDS011;18335;51.486;7.562;2022-10-16T15:05:12;2.85;;;0.80;;
31760;SDS011;18335;51.486;7.562;2022-10-16T15:07:41;4.82;;;1.17;;
31760;SDS011;18335;51.486;7.562;2022-10-16T15:10:10;4.78;;;1.25;;
31760;SDS011;18335;51.486;7.562;2022-10-16T15:12:37;3.70;;;1.10;;
31760;SDS011;18335;51.486;7.562;2022-10-16T15:18:04;4.10;;;1.30;;
31760;SDS011;18335;51.486;7.562;2022-10-16T15:20:32;3.10;;;0.90;;
31760;SDS011;18335;51.486;7.562;2022-10-16T15:23:00;6.53;;;1.20;;
31760;SDS011;18335;51.486;7.562;2022-10-16T15:25:30;4.50;;;1.58;;
31760;SDS011;18335;51.486;7.562;2022-10-16T15:27:58;7.38;;;1.48;;
31760;SDS011;18335;51.486;7.562;2022-10-16T15:30:26;14.23;;;1.50;;
31760;SDS011;18335;51.486;7.562;2022-10-16T15:32:54;5.60;;;1.60;;
31760;SDS011;18335;51.486;7.562;2022-10-16T15:35:21;6.78;;;1.70;;
31760;SDS011;18335;51.486;7.562;2022-10-16T15:37:48;15.05;;;5.32;;
31760;SDS011;18335;51.486;7.562;2022-10-16T15:40:15;11.30;;;5.22;;
31760;SDS011;18335;51.486;7.562;2022-10-16T15:42:42;13.52;;;5.95;;
31760;SDS011;18335;51.486;7.562;2022-10-16T15:45:09;11.73;;;5.05;;
31760;SDS011;18335;51.486;7.562;2022-10-16T15:47:37;9.07;;;3.58;;
31760;SDS011;18335;51.486;7.562;2022-10-16T15:50:05;5.63;;;1.77;;
31760;SDS011;18335;51.486;7.562;2022-10-16T15:52:33;5.40;;;1.40;;
31760;SDS011;18335;51.486;7.562;2022-10-16T15:54:59;9.20;;;1.88;;
31760;SDS011;18335;51.486;7.562;2022-10-16T15:57:27;6.60;;;1.90;;
31760;SDS011;18335;51.486;7.562;2022-10-16T15:59:54;5.07;;;2.30;;
31760;SDS011;18335;51.486;7.562;2022-10-16T16:02:21;11.63;;;2.00;;
31760;SDS011;18335;51.486;7.562;2022-10-16T16:04:47;8.45;;;1.80;;
31760;SDS011;18335;51.486;7.562;2022-10-16T16:07:15;5.03;;;1.45;;
31760;SDS011;18335;51.486;7.562;2022-10-16T16:09:42;9.98;;;3.85;;
31760;SDS011;18335;51.486;7.562;2022-10-16T16:12:10;6.95;;;1.98;;
31760;SDS011;18335;51.486;7.562;2022-10-16T16:14:37;7.50;;;1.77;;
31760;SDS011;18335;51.486;7.562;2022-10-16T16:17:03;10.48;;;2.00;;
31760;SDS011;18335;51.486;7.562;2022-10-16T16:19:30;8.13;;;1.52;;
31760;SDS011;18335;51.486;7.562;2022-10-16T16:21:57;11.63;;;7.78;;
31760;SDS011;18335;51.486;7.562;2022-10-16T16:24:25;11.63;;;6.20;;
31760;SDS011;18335;51.486;7.562;2022-10-16T16:26:51;11.02;;;3.05;;
31760;SDS011;18335;51.486;7.562;2022-10-16T16:29:18;8.57;;;2.60;;
31760;SDS011;18335;51.486;7.562;2022-10-16T16:31:45;6.60;;;2.72;;
31760;SDS011;18335;51.486;7.562;2022-10-16T16:34:12;8.65;;;2.92;;
31760;SDS011;18335;51.486;7.562;2022-10-16T16:36:39;13.60;;;2.88;;
31760;SDS011;18335;51.486;7.562;2022-10-16T16:39:06;6.05;;;2.13;;
31760;SDS011;18335;51.486;7.562;2022-10-16T16:41:34;6.95;;;2.20;;
31760;SDS011;18335;51.486;7.562;2022-10-16T16:44:02;6.22;;;1.58;;
31760;SDS011;18335;51.486;7.562;2022-10-16T16:46:30;7.55;;;2.72;;
31760;SDS011;18335;51.486;7.562;2022-10-16T16:48:57;10.43;;;4.18;;
31760;SDS011;18335;51.486;7.562;2022-10-16T16:51:24;8.38;;;3.53;;
31760;SDS011;18335;51.486;7.562;2022-10-16T16:53:52;9.13;;;3.15;;
31760;SDS011;18335;51.486;7.562;2022-10-16T16:56:20;7.53;;;3.55;;
31760;SDS011;18335;51.486;7.562;2022-10-16T16:58:49;12.23;;;3.60;;
31760;SDS011;18335;51.486;7.562;2022-10-16T17:01:18;13.75;;;2.15;;
31760;SDS011;18335;51.486;7.562;2022-10-16T17:03:45;10.07;;;2.35;;
31760;SDS011;18335;51.486;7.562;2022-10-16T17:06:13;10.50;;;3.47;;
31760;SDS011;18335;51.486;7.562;2022-10-16T17:08:40;8.75;;;3.05;;
31760;SDS011;18335;51.486;7.562;2022-10-16T17:11:11;16.70;;;4.43;;
31760;SDS011;18335;51.486;7.562;2022-10-16T17:13:39;16.27;;;2.47;;
31760;SDS011;18335;51.486;7.562;2022-10-16T17:16:08;6.93;;;1.88;;
31760;SDS011;18335;51.486;7.562;2022-10-16T17:18:36;13.48;;;2.08;;
31760;SDS011;18335;51.486;7.562;2022-10-16T17:21:04;8.73;;;2.22;;
31760;SDS011;18335;51.486;7.562;2022-10-16T17:23:32;10.75;;;2.03;;
31760;SDS011;18335;51.486;7.562;2022-10-16T17:26:02;15.93;;;2.17;;
31760;SDS011;18335;51.486;7.562;2022-10-16T17:28:29;13.35;;;1.98;;
31760;SDS011;18335;51.486;7.562;2022-10-16T17:30:56;13.10;;;2.13;;
31760;SDS011;18335;51.486;7.562;2022-10-16T17:33:34;15.98;;;3.42;;
31760;SDS011;18335;51.486;7.562;2022-10-16T17:36:01;11.15;;;2.33;;
31760;SDS011;18335;51.486;7.562;2022-10-16T17:38:28;7.00;;;2.05;;
31760;SDS011;18335;51.486;7.562;2022-10-16T17:40:54;10.55;;;2.10;;
31760;SDS011;18335;51.486;7.562;2022-10-16T17:43:21;5.68;;;1.48;;
31760;SDS011;18335;51.486;7.562;2022-10-16T17:45:48;7.05;;;1.55;;
31760;SDS011;18335;51.486;7.562;2022-10-16T17:48:16;6.45;;;1.95;;
31760;SDS011;18335;51.486;7.562;2022-10-16T17:50:43;7.68;;;1.90;;
31760;SDS011;18335;51.486;7.562;2022-10-16T17:53:09;9.48;;;1.80;;
31760;SDS011;18335;51.486;7.562;2022-10-16T17:55:37;5.30;;;1.63;;
31760;SDS011;18335;51.486;7.562;2022-10-16T17:58:04;6.18;;;1.10;;
31760;SDS011;18335;51.486;7.562;2022-10-16T18:00:31;6.32;;;1.50;;
31760;SDS011;18335;51.486;7.562;2022-10-16T18:02:58;3.78;;;1.20;;
31760;SDS011;18335;51.486;7.562;2022-10-16T18:05:26;8.02;;;1.92;;
31760;SDS011;18335;51.486;7.562;2022-10-16T18:07:52;8.75;;;1.73;;
31760;SDS011;18335;51.486;7.562;2022-10-16T18:10:19;10.65;;;1.75;;
31760;SDS011;18335;51.486;7.562;2022-10-16T18:12:46;4.07;;;1.20;;
31760;SDS011;18335;51.486;7.562;2022-10-16T18:15:12;4.93;;;1.35;;
31760;SDS011;18335;51.486;7.562;2022-10-16T18:17:40;6.20;;;1.65;;
31760;SDS011;18335;51.486;7.562;2022-10-16T18:20:07;2.75;;;1.13;;
31760;SDS011;18335;51.486;7.562;2022-10-16T18:22:35;4.20;;;1.08;;
31760;SDS011;18335;51.486;7.562;2022-10-16T18:25:03;3.40;;;1.20;;
31760;SDS011;18335;51.486;7.562;2022-10-16T18:27:33;5.18;;;1.02;;
31760;SDS011;18335;51.486;7.562;2022-10-16T18:30:00;5.13;;;1.75;;
31760;SDS011;18335;51.486;7.562;2022-10-16T18:32:27;4.55;;;1.38;;
31760;SDS011;18335;51.486;7.562;2022-10-16T18:34:54;6.38;;;1.40;;
31760;SDS011;18335;51.486;7.562;2022-10-16T18:37:20;6.72;;;1.77;;
31760;SDS011;18335;51.486;7.562;2022-10-16T18:39:49;6.30;;;1.40;;
31760;SDS011;18335;51.486;7.562;2022-10-16T18:42:16;5.50;;;1.80;;
31760;SDS011;18335;51.486;7.562;2022-10-16T18:44:43;4.47;;;1.92;;
31760;SDS011;18335;51.486;7.562;2022-10-16T18:47:10;3.72;;;1.55;;
31760;SDS011;18335;51.486;7.562;2022-10-16T18:49:37;3.35;;;1.40;;
31760;SDS011;18335;51.486;7.562;2022-10-16T18:52:04;4.40;;;1.50;;
31760;SDS011;18335;51.486;7.562;2022-10-16T18:54:32;8.48;;;1.23;;
31760;SDS011;18335;51.486;7.562;2022-10-16T18:57:00;6.95;;;1.60;;
31760;SDS011;18335;51.486;7.562;2022-10-16T18:59:27;5.85;;;1.55;;
31760;SDS011;18335;51.486;7.562;2022-10-16T19:01:54;4.53;;;1.60;;
31760;SDS011;18335;51.486;7.562;2022-10-16T19:04:22;3.53;;;1.17;;
31760;SDS011;18335;51.486;7.562;2022-10-16T19:06:49;3.42;;;1.27;;
31760;SDS011;18335;51.486;7.562;2022-10-16T19:09:18;7.15;;;1.73;;
31760;SDS011;18335;51.486;7.562;2022-10-16T19:11:46;5.50;;;1.50;;
31760;SDS011;18335;51.486;7.562;2022-10-16T19:14:15;6.43;;;1.95;;
31760;SDS011;18335;51.486;7.562;2022-10-16T19:16:42;6.65;;;2.30;;
31760;SDS011;18335;51.486;7.562;2022-10-16T19:19:10;6.25;;;2.25;;
31760;SDS011;18335;51.486;7.562;2022-10-16T19:21:39;5.38;;;1.77;;
31760;SDS011;18335;51.486;7.562;2022-10-16T19:24:06;3.30;;;1.63;;
31760;SDS011;18335;51.486;7.562;2022-10-16T19:26:36;5.30;;;2.25;;
31760;SDS011;18335;51.486;7.562;2022-10-16T19:29:03;4.95;;;1.70;;
31760;SDS011;18335;51.486;7.562;2022-10-16T19:31:32;5.72;;;1.77;;
31760;SDS011;18335;51.486;7.562;2022-10-16T19:34:00;6.40;;;2.08;;
31760;SDS011;18335;51.486;7.562;2022-10-16T19:36:28;6.43;;;2.13;;
31760;SDS011;18335;51.486;7.562;2022-10-16T19:38:57;6.97;;;2.30;;
31760;SDS011;18335;51.486;7.562;2022-10-16T19:41:25;7.53;;;2.35;;
31760;SDS011;18335;51.486;7.562;2022-10-16T19:43:53;5.18;;;2.42;;
31760;SDS011;18335;51.486;7.562;2022-10-16T19:46:21;14.65;;;2.97;;
31760;SDS011;18335;51.486;7.562;2022-10-16T19:48:53;10.57;;;3.40;;
31760;SDS011;18335;51.486;7.562;2022-10-16T19:51:21;7.38;;;3.38;;
31760;SDS011;18335;51.486;7.562;2022-10-16T19:53:52;7.68;;;2.70;;
31760;SDS011;18335;51.486;7.562;2022-10-16T19:56:20;8.43;;;3.00;;
31760;SDS011;18335;51.486;7.562;2022-10-16T19:58:49;7.90;;;2.38;;
31760;SDS011;18335;51.486;7.562;2022-10-16T20:01:19;10.02;;;3.10;;
31760;SDS011;18335;51.486;7.562;2022-10-16T20:03:46;9.10;;;2.78;;
31760;SDS011;18335;51.486;7.562;2022-10-16T20:06:16;11.55;;;2.67;;
31760;SDS011;18335;51.486;7.562;2022-10-16T20:08:44;8.50;;;2.60;;
31760;SDS011;18335;51.486;7.562;2022-10-16T20:11:13;11.65;;;2.50;;
31760;SDS011;18335;51.486;7.562;2022-10-16T20:13:42;14.43;;;2.47;;
31760;SDS011;18335;51.486;7.562;2022-10-16T20:16:10;10.25;;;2.92;;
31760;SDS011;18335;51.486;7.562;2022-10-16T20:18:38;5.55;;;2.08;;
31760;SDS011;18335;51.486;7.562;2022-10-16T20:21:09;10.90;;;3.10;;
31760;SDS011;18335;51.486;7.562;2022-10-16T20:23:39;6.45;;;2.22;;
31760;SDS011;18335;51.486;7.562;2022-10-16T20:26:06;6.70;;;2.67;;
31760;SDS011;18335;51.486;7.562;2022-10-16T20:28:36;11.15;;;2.22;;
31760;SDS011;18335;51.486;7.562;2022-10-16T20:31:05;13.15;;;3.30;;
31760;SDS011;18335;51.486;7.562;2022-10-16T20:33:36;9.13;;;2.70;;
31760;SDS011;18335;51.486;7.562;2022-10-16T20:36:03;10.13;;;2.35;;
31760;SDS011;18335;51.486;7.562;2022-10-16T20:38:35;9.48;;;2.97;;
31760;SDS011;18335;51.486;7.562;2022-10-16T20:41:04;7.53;;;2.15;;
31760;SDS011;18335;51.486;7.562;2022-10-16T20:43:31;8.55;;;2.70;;
31760;SDS011;18335;51.486;7.562;2022-10-16T20:45:58;9.60;;;2.47;;
31760;SDS011;18335;51.486;7.562;2022-10-16T20:48:25;11.93;;;2.83;;
31760;SDS011;18335;51.486;7.562;2022-10-16T20:50:52;8.77;;;3.15;;
31760;SDS011;18335;51.486;7.562;2022-10-16T20:53:19;7.72;;;2.50;;
31760;SDS011;18335;51.486;7.562;2022-10-16T20:55:45;8.15;;;2.83;;
31760;SDS011;18335;51.486;7.562;2022-10-16T20:58:14;7.70;;;2.63;;
31760;SDS011;18335;51.486;7.562;2022-10-16T21:00:41;12.43;;;3.05;;
31760;SDS011;18335;51.486;7.562;2022-10-16T21:03:08;7.50;;;3.00;;
31760;SDS011;18335;51.486;7.562;2022-10-16T21:05:38;5.93;;;2.53;;
31760;SDS011;18335;51.486;7.562;2022-10-16T21:08:06;5.32;;;1.88;;
31760;SDS011;18335;51.486;7.562;2022-10-16T21:10:33;6.55;;;2.58;;
31760;SDS011;18335;51.486;7.562;2022-10-16T21:13:00;6.90;;;3.10;;
31760;SDS011;18335;51.486;7.562;2022-10-16T21:15:29;9.93;;;3.75;;
31760;SDS011;18335;51.486;7.562;2022-10-16T21:17:55;8.10;;;3.38;;
31760;SDS011;18335;51.486;7.562;2022-10-16T21:20:22;9.60;;;3.45;;
31760;SDS011;18335;51.486;7.562;2022-10-16T21:22:49;8.27;;;3.65;;
31760;SDS011;18335;51.486;7.562;2022-10-16T21:25:16;8.88;;;3.40;;
31760;SDS011;18335;51.486;7.562;2022-10-16T21:27:43;7.70;;;3.30;;
31760;SDS011;18335;51.486;7.562;2022-10-16T21:30:10;9.18;;;3.00;;
31760;SDS011;18335;51.486;7.562;2022-10-16T21:32:38;7.97;;;3.35;;
31760;SDS011;18335;51.486;7.562;2022-10-16T21:35:05;7.88;;;3.33;;
31760;SDS011;18335;51.486;7.562;2022-10-16T21:37:33;9.70;;;3.40;;
31760;SDS011;18335;51.486;7.562;2022-10-16T21:40:00;8.02;;;4.35;;
31760;SDS011;18335;51.486;7.562;2022-10-16T21:42:27;7.22;;;3.67;;
31760;SDS011;18335;51.486;7.562;2022-10-16T21:44:54;9.55;;;3.75;;
31760;SDS011;18335;51.486;7.562;2022-10-16T21:47:21;9.90;;;3.80;;
31760;SDS011;18335;51.486;7.562;2022-10-16T21:49:49;14.15;;;4.10;;
31760;SDS011;18335;51.486;7.562;2022-10-16T21:52:16;11.75;;;4.32;;
31760;SDS011;18335;51.486;7.562;2022-10-16T21:54:42;9.43;;;4.07;;
31760;SDS011;18335;51.486;7.562;2022-10-16T21:57:09;10.98;;;4.55;;
31760;SDS011;18335;51.486;7.562;2022-10-16T21:59:36;7.03;;;3.40;;
31760;SDS011;18335;51.486;7.562;2022-10-16T22:02:02;8.38;;;4.07;;
31760;SDS011;18335;51.486;7.562;2022-10-16T22:04:30;8.63;;;3.78;;
31760;SDS011;18335;51.486;7.562;2022-10-16T22:06:58;11.05;;;3.97;;
31760;SDS011;18335;51.486;7.562;2022-10-16T22:09:25;14.45;;;4.55;;
31760;SDS011;18335;51.486;7.562;2022-10-16T22:11:51;11.15;;;4.13;;
31760;SDS011;18335;51.486;7.562;2022-10-16T22:14:19;12.05;;;4.00;;
31760;SDS011;18335;51.486;7.562;2022-10-16T22:16:46;11.70;;;4.20;;